Ana Sayfa
METAR-TAF:

METAR-TAF

Havaalanları :

Tunus-Kartaca Uluslararası Havalimanı

Tunus, Tunus

Enlem: 36-50N, Boylam: 010-14E, yükseklik: 3 m

Güncel hava durumu gözlemi

Rapor saat 08:00 UTC de 16 dakika önce yapıldı.
Rüzgar güneydan 8 kt
Sıcaklık 15°C
Nem 59%
Basınç 1016 hPa
Görüş mesafesi 10 km veya daha fazla
3300 ft yükseklikte az bulutlu

METAR: DTTA 210800Z 19008KT 9999 FEW033 15/07 Q1016 NOSIG

Saat: 09:16 (08:16 UTC)

Tahmin

Rapor saat 05:00 UTC de 3 saat ve 16 dakika önce yapıldı.
Ayın 21'si saat 06 UTC'den ayın 22'si saat 06 UTC'ye kadar geçerli Tahmin
Rüzgar güneydan 5 kt
Görüş mesafesi 10 km veya daha fazla
3300 ft yükseklikte az bulutlu
Dönüşüyor
ayın 21'si saat 10 UTC'den ayın 21'si saat 12 UTC'ye kadar
Rüzgar batı/kuzeybatıdan 10 kt
Dönüşüyor
ayın 21'si saat 18 UTC'den ayın 21'si saat 20 UTC'ye kadar
Rüzgar güneydan 4 kt

TAF: DTTA 210500Z 2106/2206 18005KT 9999 FEW033 BECMG 2110/2112 30010KT BECMG 2118/2120 18004KT

4.000'den fazla havaalanı için hava durumu gözlemleri ve tahminleri (METAR ve TAF raporları).

Kullanılabilir istasyonlar harita üzerinde sarı ve kırmızı noktalarla gösterilir.

İstasyonun adını görmek için fareyi noktanın üzerinde gezdirin.

Sonrasında hava gözlem ve tahminlerini görmek için tıklayın.

Haritayı değiştirmek için: yaklaştırmak için siyah artı işaretli yeşil düğmeye ve uzaklaştırmak için de eksi işaretli düğmeye hızla tıklayın; bitişik haritalar için yeşil okları kullanın.


METAR-TAF: